LGB weather

Long Beach /Daugherty Field/ Airport
Long Beach, California, United States

Public forecast

Using degrees Fahrenheit for public forecast. Weather courtesy of forecast.io.

Current aviation weather report (METAR) for Long Beach /Daugherty Field/ Airport

Retrieved 2019/11/12 15:53 UTC (2 hours ago):

KLGB 121553Z 27003KT 1 3/4SM BR OVC006 15/13 A3008 RMK AO2 SLP185 T01500133

Aviation forecast (TAF) for Long Beach /Daugherty Field/ Airport

Retrieved 2019/11/12 12:36 UTC (5 hours ago):

TAF KLGB 121135Z 1212/1312 VRB03KT 2SM BR OVC004 FM121500 VRB03KT 4SM BR OVC007 FM121700 VRB03KT P6SM SKC FM122000 19008KT P6SM SKC FM130000 30008KT P6SM SKC FM130400 VRB03KT 4SM BR BKN008